Stoystown, Pennsylvania
Current Conditions -  °F | °C
As of 10:54 PM on Saturday 25 Oct 2014 (Local Time) from KJST Reporting Station
Broken Clouds Broken Clouds  
Wind Chill: 57°   Ceiling: 3700
Heat Index: 57°   Visibility: 10mi
Dew Point: 48°   Wind: 17mph
Humidity: 72%   Direction: 250°WSW
Pressure: 29.73"   Gusts: 29mph
Location:  40.1°N, 78.95°W
Report Text: KJST 260254Z AUTO 25015G25KT 10SM SCT030 BKN037 14/09 A2973 RMK AO2 PK WND 28028/0231 SLP066 T01390089 55005
Loading
Personal Weather Stations






























Interactive Weather Map
Tropical Storm Tracking
New forecast layout! Learn more

10-Day Weather Forecast

Advertisements
Track Severe Weather on mobile